createdAt,value
2018-10-09T00:02:05.203Z,15.70
2018-10-09T00:04:33.665Z,14.83
2018-10-09T00:07:02.193Z,15.17
2018-10-09T00:09:30.639Z,16.80
2018-10-09T00:11:59.107Z,15.90
2018-10-09T00:14:27.768Z,19.00
2018-10-09T00:16:56.278Z,19.80
2018-10-09T00:19:24.752Z,17.90
2018-10-09T00:21:53.231Z,13.43
2018-10-09T00:24:21.697Z,14.87
2018-10-09T00:26:50.184Z,14.83
2018-10-09T00:29:18.696Z,15.87
2018-10-09T00:31:47.159Z,19.37
2018-10-09T00:34:15.916Z,17.20
2018-10-09T00:36:44.382Z,14.03
2018-10-09T00:39:12.865Z,14.10
2018-10-09T00:41:41.485Z,18.50
2018-10-09T00:44:09.951Z,16.90
2018-10-09T00:46:38.488Z,12.20
2018-10-09T00:49:07.049Z,16.80
2018-10-09T00:51:36.048Z,14.57
2018-10-09T00:54:04.500Z,18.73
2018-10-09T00:56:32.968Z,17.87
2018-10-09T00:59:01.461Z,15.50
2018-10-09T01:01:30.008Z,16.83
2018-10-09T01:03:58.480Z,16.07
2018-10-09T01:06:26.991Z,15.40
2018-10-09T01:08:55.489Z,15.23
2018-10-09T01:11:23.978Z,15.63
2018-10-09T01:13:52.464Z,19.93
2018-10-09T01:16:21.035Z,25.93
2018-10-09T01:18:49.502Z,19.73
2018-10-09T01:21:18.011Z,20.50
2018-10-09T01:23:46.543Z,13.77
2018-10-09T01:26:15.109Z,18.27
2018-10-09T01:28:43.555Z,17.30
2018-10-09T01:31:12.038Z,14.77
2018-10-09T01:33:40.511Z,18.90
2018-10-09T01:36:08.996Z,17.33
2018-10-09T01:38:37.466Z,19.23
2018-10-09T01:41:06.418Z,19.57
2018-10-09T01:43:34.911Z,19.00
2018-10-09T01:46:03.373Z,20.93
2018-10-09T01:48:31.851Z,22.23
2018-10-09T01:51:00.308Z,22.27
2018-10-09T01:53:28.797Z,25.53
2018-10-09T01:55:57.315Z,20.33
2018-10-09T01:58:25.803Z,22.17
2018-10-09T02:00:54.258Z,21.70
2018-10-09T02:03:22.808Z,24.80
2018-10-09T02:05:51.275Z,20.50
2018-10-09T02:08:19.723Z,21.57
2018-10-09T02:10:48.194Z,21.70
2018-10-09T02:13:16.716Z,23.87
2018-10-09T02:15:45.220Z,21.53
2018-10-09T02:18:13.694Z,25.63
2018-10-09T02:20:42.154Z,23.33
2018-10-09T02:23:10.670Z,23.73
2018-10-09T02:25:39.139Z,19.93
2018-10-09T02:28:07.651Z,23.83
2018-10-09T02:30:36.149Z,23.70
2018-10-09T02:33:04.660Z,23.37
2018-10-09T02:35:33.139Z,25.20
2018-10-09T02:38:01.636Z,24.23
2018-10-09T02:40:30.137Z,19.53
2018-10-09T02:42:58.614Z,18.80
2018-10-09T02:45:27.428Z,19.20
2018-10-09T02:47:55.943Z,17.90
2018-10-09T02:50:24.435Z,17.07
2018-10-09T02:52:52.924Z,18.47
2018-10-09T02:55:21.395Z,20.17
2018-10-09T02:57:50.035Z,22.20
2018-10-09T03:00:18.548Z,18.83
2018-10-09T03:02:47.041Z,22.53
2018-10-09T03:05:15.496Z,23.73
2018-10-09T03:07:44.004Z,21.00
2018-10-09T03:10:12.571Z,23.53
2018-10-09T03:12:41.056Z,21.77
2018-10-09T03:15:09.720Z,21.60
2018-10-09T03:17:38.225Z,20.00
2018-10-09T03:20:06.720Z,22.80
2018-10-09T03:22:35.213Z,19.43
2018-10-09T03:25:03.701Z,18.83
2018-10-09T03:27:32.172Z,21.00
2018-10-09T03:30:00.655Z,14.07
2018-10-09T03:32:29.115Z,17.70
2018-10-09T03:34:57.613Z,18.43
2018-10-09T03:37:26.075Z,15.07
2018-10-09T03:39:54.548Z,20.60
2018-10-09T03:42:23.008Z,18.00
2018-10-09T03:44:51.489Z,15.60
2018-10-09T03:47:20.028Z,17.37
2018-10-09T03:49:48.639Z,19.27
2018-10-09T03:52:17.114Z,16.00
2018-10-09T03:54:45.644Z,15.90
2018-10-09T03:57:14.247Z,18.23
2018-10-09T03:59:42.768Z,16.50
2018-10-09T04:02:11.643Z,17.20
2018-10-09T04:04:40.144Z,16.50
2018-10-09T04:07:08.715Z,23.53
2018-10-09T04:09:37.297Z,19.63
2018-10-09T04:12:05.925Z,16.33
2018-10-09T04:14:34.413Z,15.80
2018-10-09T04:17:02.867Z,15.10
2018-10-09T04:19:31.397Z,19.63
2018-10-09T04:21:59.797Z,20.07
2018-10-09T04:24:28.276Z,16.03
2018-10-09T04:26:56.717Z,16.97
2018-10-09T04:29:25.185Z,21.30
2018-10-09T04:31:53.640Z,20.13
2018-10-09T04:34:22.115Z,17.07
2018-10-09T04:36:50.591Z,20.50
2018-10-09T04:39:19.063Z,27.03
2018-10-09T04:41:47.539Z,24.13
2018-10-09T04:44:16.044Z,20.30
2018-10-09T04:46:44.689Z,20.80
2018-10-09T04:49:13.124Z,21.20
2018-10-09T04:51:41.576Z,23.07
2018-10-09T04:54:10.065Z,20.10
2018-10-09T04:56:38.531Z,26.93
2018-10-09T04:59:07.032Z,17.33
2018-10-09T05:01:35.470Z,18.10
2018-10-09T05:04:03.948Z,18.67
2018-10-09T05:06:32.423Z,17.33
2018-10-09T05:09:00.996Z,15.63
2018-10-09T05:11:29.477Z,16.93
2018-10-09T05:13:57.978Z,19.03
2018-10-09T05:16:27.108Z,17.47
2018-10-09T05:18:55.622Z,16.80
2018-10-09T05:21:24.733Z,17.27
2018-10-09T05:23:53.229Z,17.60
2018-10-09T05:26:21.728Z,21.83
2018-10-09T05:28:50.352Z,19.20
2018-10-09T05:31:18.874Z,17.33
2018-10-09T05:33:47.321Z,22.67
2018-10-09T05:36:15.796Z,22.70
2018-10-09T05:38:44.672Z,27.13
2018-10-09T05:41:13.171Z,27.63
2018-10-09T05:43:41.632Z,24.47
2018-10-09T05:46:10.115Z,20.33
2018-10-09T05:48:38.591Z,29.00
2018-10-09T05:51:07.237Z,31.63
2018-10-09T05:53:35.700Z,31.27
2018-10-09T05:56:04.168Z,25.90
2018-10-09T05:58:32.627Z,25.47
2018-10-09T06:01:01.126Z,32.37
2018-10-09T06:03:29.584Z,23.10
2018-10-09T06:05:58.104Z,20.23
2018-10-09T06:08:26.662Z,24.53
2018-10-09T06:10:55.121Z,28.27
2018-10-09T06:13:24.446Z,22.03
2018-10-09T06:15:53.182Z,17.33
2018-10-09T06:18:21.978Z,16.20
2018-10-09T06:20:50.430Z,18.83
2018-10-09T06:23:18.909Z,15.67
2018-10-09T06:25:47.423Z,22.50
2018-10-09T06:28:16.095Z,20.37
2018-10-09T06:30:44.471Z,21.97
2018-10-09T06:33:12.930Z,20.57
2018-10-09T06:35:41.404Z,22.53
2018-10-09T06:38:09.847Z,18.53
2018-10-09T06:40:38.470Z,19.27
2018-10-09T06:43:06.906Z,22.17
2018-10-09T06:45:35.372Z,18.13
2018-10-09T06:48:03.856Z,20.03
2018-10-09T06:50:32.324Z,24.90
2018-10-09T06:53:00.763Z,19.43
2018-10-09T06:55:29.221Z,24.50
2018-10-09T06:57:57.691Z,19.53
2018-10-09T07:00:26.174Z,19.10
2018-10-09T07:02:54.635Z,24.03
2018-10-09T07:05:23.100Z,18.97
2018-10-09T07:07:51.792Z,19.70
2018-10-09T07:10:20.260Z,19.27
2018-10-09T07:12:48.723Z,23.77
2018-10-09T07:15:17.224Z,24.60
2018-10-09T07:17:45.680Z,26.67
2018-10-09T07:20:14.320Z,20.73
2018-10-09T07:22:42.782Z,27.93
2018-10-09T07:25:11.267Z,36.50
2018-10-09T07:27:39.752Z,22.57
2018-10-09T07:30:08.516Z,30.20
2018-10-09T07:32:36.977Z,27.43
2018-10-09T07:35:05.810Z,23.80
2018-10-09T07:37:34.370Z,23.20
2018-10-09T07:40:02.796Z,28.33
2018-10-09T07:42:31.269Z,28.67
2018-10-09T07:44:59.742Z,30.13
2018-10-09T07:47:28.214Z,29.23
2018-10-09T07:49:56.664Z,30.93
2018-10-09T07:52:25.166Z,26.70
2018-10-09T07:54:53.612Z,30.50
2018-10-09T07:57:22.090Z,26.57
2018-10-09T07:59:50.562Z,29.30
2018-10-09T08:02:19.024Z,32.30
2018-10-09T08:04:47.536Z,32.20
2018-10-09T08:07:15.983Z,35.80
2018-10-09T08:09:44.525Z,40.80
2018-10-09T08:12:13.236Z,37.63
2018-10-09T08:14:41.713Z,35.27
2018-10-09T08:17:10.192Z,33.00
2018-10-09T08:19:38.672Z,35.77
2018-10-09T08:22:07.176Z,37.67
2018-10-09T08:24:35.615Z,36.10
2018-10-09T08:27:04.171Z,34.37
2018-10-09T08:29:32.623Z,37.43
2018-10-09T08:32:01.156Z,41.17
2018-10-09T08:34:29.731Z,37.73
2018-10-09T08:36:58.248Z,33.50
2018-10-09T08:39:26.722Z,36.00
2018-10-09T08:41:55.220Z,35.43
2018-10-09T08:44:23.675Z,31.70
2018-10-09T08:46:52.166Z,27.47
2018-10-09T08:49:20.636Z,32.67
2018-10-09T08:51:49.137Z,35.83
2018-10-09T08:54:17.605Z,29.77
2018-10-09T08:56:46.076Z,29.37
2018-10-09T08:59:14.535Z,31.27
2018-10-09T09:01:43.049Z,27.53
2018-10-09T09:04:11.506Z,34.37
2018-10-09T09:06:39.970Z,29.67
2018-10-09T09:09:09.212Z,33.70
2018-10-09T09:11:37.829Z,36.20
2018-10-09T09:14:06.431Z,31.63
2018-10-09T09:16:34.975Z,28.20
2018-10-09T09:19:03.434Z,28.87
2018-10-09T09:21:32.332Z,29.77
2018-10-09T09:24:01.303Z,29.10
2018-10-09T09:26:29.927Z,35.07
2018-10-09T09:28:58.678Z,33.23
2018-10-09T09:31:28.100Z,34.00
2018-10-09T09:33:56.628Z,32.37
2018-10-09T09:36:25.103Z,27.67
2018-10-09T09:38:53.564Z,29.53
2018-10-09T09:41:22.028Z,38.97
2018-10-09T09:43:50.475Z,32.93
2018-10-09T09:46:19.179Z,33.47
2018-10-09T09:48:47.571Z,30.90
2018-10-09T09:51:16.031Z,31.43
2018-10-09T09:53:44.516Z,33.33
2018-10-09T09:56:12.975Z,33.53
2018-10-09T09:58:41.622Z,34.77
2018-10-09T10:01:11.084Z,29.93
2018-10-09T10:03:40.756Z,37.30
2018-10-09T10:06:09.406Z,32.87
2018-10-09T10:08:38.386Z,37.80
2018-10-09T10:11:07.036Z,35.77
2018-10-09T10:13:35.548Z,32.10
2018-10-09T10:16:04.011Z,29.90
2018-10-09T10:18:32.474Z,38.80
2018-10-09T10:21:00.928Z,35.90
2018-10-09T10:23:29.411Z,40.00
2018-10-09T10:25:57.918Z,38.03
2018-10-09T10:28:26.389Z,32.20
2018-10-09T10:30:54.841Z,31.57
2018-10-09T10:33:23.352Z,33.17
2018-10-09T10:35:51.837Z,33.00
2018-10-09T10:38:20.387Z,37.07
2018-10-09T10:40:48.862Z,31.77
2018-10-09T10:43:17.308Z,31.50
2018-10-09T10:45:45.792Z,33.23
2018-10-09T10:48:14.323Z,33.37
2018-10-09T10:50:42.768Z,30.67
2018-10-09T10:53:11.243Z,37.57
2018-10-09T10:55:39.722Z,31.60
2018-10-09T10:58:08.300Z,32.37
2018-10-09T11:00:36.756Z,31.30
2018-10-09T11:03:05.681Z,35.47
2018-10-09T11:05:34.335Z,35.67
2018-10-09T11:08:03.046Z,31.17
2018-10-09T11:10:31.328Z,32.50
2018-10-09T11:12:59.790Z,35.80
2018-10-09T11:15:28.276Z,37.30
2018-10-09T11:17:56.738Z,30.57
2018-10-09T11:20:26.240Z,31.87
2018-10-09T11:22:54.680Z,29.80
2018-10-09T11:25:23.125Z,35.50
2018-10-09T11:27:51.597Z,31.30
2018-10-09T11:30:20.049Z,41.43
2018-10-09T11:32:48.508Z,32.03
2018-10-09T11:35:16.964Z,28.10
2018-10-09T11:37:45.447Z,37.57
2018-10-09T11:40:13.906Z,30.63
2018-10-09T11:42:42.431Z,31.33
2018-10-09T11:45:10.817Z,31.67
2018-10-09T11:47:39.353Z,31.07
2018-10-09T11:50:08.204Z,33.03
2018-10-09T11:52:36.722Z,32.20
2018-10-09T11:55:05.327Z,32.30
2018-10-09T11:57:33.864Z,31.67
2018-10-09T12:00:03.252Z,32.90
2018-10-09T12:02:31.760Z,31.47
2018-10-09T12:05:00.256Z,35.17
2018-10-09T12:07:28.717Z,34.13
2018-10-09T12:09:57.221Z,30.90
2018-10-09T12:12:25.701Z,33.03
2018-10-09T12:14:54.422Z,31.03
2018-10-09T12:17:23.380Z,31.37
2018-10-09T12:19:51.871Z,39.67
2018-10-09T12:22:20.326Z,66.70
2018-10-09T12:24:48.948Z,124.23
2018-10-09T12:27:17.560Z,70.37
2018-10-09T12:29:46.082Z,40.87
2018-10-09T12:32:14.572Z,35.87
2018-10-09T12:34:43.117Z,38.43
2018-10-09T12:37:11.617Z,31.77
2018-10-09T12:39:40.412Z,28.70
2018-10-09T12:42:12.113Z,31.23
2018-10-09T12:44:40.651Z,34.13
2018-10-09T12:47:09.129Z,73.93
2018-10-09T12:49:37.617Z,64.73
2018-10-09T12:52:06.080Z,46.33
2018-10-09T12:54:34.580Z,38.87
2018-10-09T12:57:03.072Z,32.50
2018-10-09T12:59:32.180Z,41.50
2018-10-09T13:02:00.633Z,43.30
2018-10-09T13:04:29.145Z,30.60
2018-10-09T13:06:57.656Z,25.23
2018-10-09T13:09:26.195Z,24.43
2018-10-09T13:11:54.608Z,36.27
2018-10-09T13:14:23.100Z,25.90
2018-10-09T13:16:51.593Z,24.83
2018-10-09T13:19:20.076Z,26.67
2018-10-09T13:21:48.986Z,29.60
2018-10-09T13:24:17.021Z,26.67
2018-10-09T13:26:45.509Z,40.50
2018-10-09T13:29:14.084Z,27.93
2018-10-09T13:31:42.530Z,26.03
2018-10-09T13:34:11.080Z,25.67
2018-10-09T13:36:39.545Z,28.33
2018-10-09T13:39:08.766Z,33.33
2018-10-09T13:41:37.227Z,60.13
2018-10-09T13:44:05.999Z,93.30
2018-10-09T13:46:34.466Z,156.37
2018-10-09T13:49:02.971Z,100.43
2018-10-09T13:51:31.476Z,108.27
2018-10-09T13:53:59.936Z,105.23
2018-10-09T13:56:28.461Z,62.90
2018-10-09T13:58:56.932Z,49.13
2018-10-09T14:01:25.457Z,43.07
2018-10-09T14:03:53.925Z,70.53
2018-10-09T14:06:22.423Z,60.80
2018-10-09T14:08:51.452Z,49.83
2018-10-09T14:11:19.934Z,39.17
2018-10-09T14:13:48.440Z,43.77
2018-10-09T14:16:17.013Z,40.77
2018-10-09T14:18:45.461Z,41.23
2018-10-09T14:21:13.963Z,40.13
2018-10-09T14:23:42.440Z,36.30
2018-10-09T14:26:10.971Z,40.03
2018-10-09T14:28:39.459Z,30.60
2018-10-09T14:31:08.031Z,35.43
2018-10-09T14:33:36.498Z,31.37
2018-10-09T14:36:04.961Z,32.07
2018-10-09T14:38:33.457Z,31.43
2018-10-09T14:41:01.994Z,32.23
2018-10-09T14:43:30.600Z,35.53
2018-10-09T14:45:59.111Z,32.07
2018-10-09T14:48:27.608Z,36.37
2018-10-09T14:50:56.092Z,30.50
2018-10-09T14:53:24.617Z,29.60
2018-10-09T14:55:53.122Z,34.53
2018-10-09T14:58:21.618Z,33.13
2018-10-09T15:00:50.118Z,37.60
2018-10-09T15:03:18.611Z,29.20
2018-10-09T15:05:47.097Z,30.07
2018-10-09T15:08:15.622Z,28.83
2018-10-09T15:10:44.128Z,31.50
2018-10-09T15:13:12.674Z,36.20
2018-10-09T15:15:41.207Z,26.93
2018-10-09T15:18:11.461Z,31.87
2018-10-09T15:20:40.075Z,29.07
2018-10-09T15:23:09.115Z,27.93
2018-10-09T15:25:37.622Z,27.80
2018-10-09T15:28:06.270Z,33.40
2018-10-09T15:30:34.791Z,26.37
2018-10-09T15:33:03.482Z,25.77
2018-10-09T15:35:32.021Z,26.87
2018-10-09T15:38:00.521Z,31.07
2018-10-09T15:40:28.990Z,29.60
2018-10-09T15:42:57.480Z,26.83
2018-10-09T15:45:25.962Z,29.43
2018-10-09T15:47:54.447Z,33.53
2018-10-09T15:50:22.973Z,27.40
2018-10-09T15:52:51.556Z,27.30
2018-10-09T15:55:20.109Z,29.13
2018-10-09T15:57:48.610Z,30.33
2018-10-09T16:00:17.100Z,36.07
2018-10-09T16:02:45.620Z,111.97
2018-10-09T16:05:14.205Z,71.40
2018-10-09T16:07:42.951Z,201.97
2018-10-09T16:10:11.474Z,97.40
2018-10-09T16:12:40.031Z,201.20
2018-10-09T16:15:08.526Z,59.10
2018-10-09T16:17:37.075Z,39.47
2018-10-09T16:20:06.254Z,34.73
2018-10-09T16:22:34.971Z,31.37
2018-10-09T16:25:03.424Z,30.13
2018-10-09T16:27:31.959Z,29.70
2018-10-09T16:30:00.594Z,28.33
2018-10-09T16:32:29.214Z,29.20
2018-10-09T16:34:57.740Z,32.07
2018-10-09T16:37:26.324Z,28.13
2018-10-09T16:39:54.836Z,26.73
2018-10-09T16:42:23.355Z,28.07
2018-10-09T16:44:51.820Z,27.87
2018-10-09T16:47:20.411Z,24.90
2018-10-09T16:49:48.873Z,24.73
2018-10-09T16:52:17.380Z,24.57
2018-10-09T16:54:45.865Z,27.00
2018-10-09T16:57:14.384Z,21.60
2018-10-09T16:59:43.973Z,29.40
2018-10-09T17:02:14.497Z,24.17
2018-10-09T17:04:43.021Z,27.00
2018-10-09T17:07:11.544Z,31.17
2018-10-09T17:09:40.005Z,30.27
2018-10-09T17:12:08.535Z,23.93
2018-10-09T17:14:36.998Z,25.53
2018-10-09T17:17:05.484Z,29.97
2018-10-09T17:19:34.006Z,21.17
2018-10-09T17:22:03.589Z,28.37
2018-10-09T17:24:32.175Z,19.57
2018-10-09T17:27:00.668Z,22.63
2018-10-09T17:29:29.227Z,17.10
2018-10-09T17:31:57.755Z,20.37
2018-10-09T17:34:26.224Z,16.87
2018-10-09T17:36:54.704Z,15.07
2018-10-09T17:39:23.288Z,16.77
2018-10-09T17:41:51.809Z,16.13
2018-10-09T17:44:21.308Z,16.00
2018-10-09T17:46:49.815Z,23.10
2018-10-09T17:49:24.404Z,22.33
2018-10-09T17:51:52.911Z,23.17
2018-10-09T17:54:22.381Z,14.97
2018-10-09T17:56:50.852Z,17.30
2018-10-09T17:59:19.354Z,15.73
2018-10-09T18:01:47.891Z,15.97
2018-10-09T18:04:17.391Z,14.67
2018-10-09T18:06:45.870Z,14.20
2018-10-09T18:09:14.331Z,14.73
2018-10-09T18:11:43.905Z,15.63
2018-10-09T18:14:13.395Z,16.33
2018-10-09T18:16:41.892Z,15.57
2018-10-09T18:19:10.372Z,13.83
2018-10-09T18:21:38.863Z,18.67
2018-10-09T18:24:07.352Z,14.03
2018-10-09T18:26:35.824Z,14.83
2018-10-09T18:29:04.437Z,16.97
2018-10-09T18:31:32.930Z,15.20
2018-10-09T18:34:01.528Z,17.03
2018-10-09T18:36:30.008Z,15.30
2018-10-09T18:38:58.524Z,19.37
2018-10-09T18:41:27.191Z,15.30
2018-10-09T18:43:55.532Z,15.87
2018-10-09T18:46:24.038Z,15.67
2018-10-09T18:48:52.669Z,14.80
2018-10-09T18:51:21.199Z,18.87
2018-10-09T18:53:49.667Z,14.47
2018-10-09T18:56:18.284Z,14.03
2018-10-09T18:58:47.927Z,19.33
2018-10-09T19:01:16.332Z,17.90
2018-10-09T19:03:44.990Z,17.10
2018-10-09T19:06:13.482Z,15.10
2018-10-09T19:08:41.975Z,18.97
2018-10-09T19:11:11.512Z,17.73
2018-10-09T19:13:41.118Z,21.23
2018-10-09T19:16:09.599Z,18.77
2018-10-09T19:18:38.103Z,19.23
2018-10-09T19:21:08.604Z,20.17
2018-10-09T19:23:37.170Z,20.03
2018-10-09T19:26:05.727Z,16.43
2018-10-09T19:28:34.289Z,15.73
2018-10-09T19:31:02.884Z,15.97
2018-10-09T19:33:31.468Z,23.93
2018-10-09T19:36:00.348Z,18.87
2018-10-09T19:38:28.841Z,20.83
2018-10-09T19:40:57.388Z,18.00
2018-10-09T19:43:26.040Z,21.27
2018-10-09T19:45:54.559Z,18.87
2018-10-09T19:48:23.049Z,21.23
2018-10-09T19:50:51.733Z,21.87
2018-10-09T19:53:21.280Z,16.27
2018-10-09T19:55:49.815Z,18.60
2018-10-09T19:58:18.519Z,18.70
2018-10-09T20:00:47.014Z,18.23
2018-10-09T20:03:15.585Z,16.70
2018-10-09T20:05:44.144Z,17.57
2018-10-09T20:08:12.656Z,19.70
2018-10-09T20:10:41.279Z,20.20
2018-10-09T20:13:09.843Z,23.07
2018-10-09T20:15:38.399Z,18.27
2018-10-09T20:18:07.112Z,19.97
2018-10-09T20:20:35.667Z,21.10
2018-10-09T20:23:04.148Z,19.70
2018-10-09T20:25:32.700Z,21.27
2018-10-09T20:28:01.264Z,19.17
2018-10-09T20:30:29.768Z,16.10
2018-10-09T20:32:58.412Z,21.20
2018-10-09T20:35:26.960Z,26.97
2018-10-09T20:37:55.524Z,28.50
2018-10-09T20:40:24.049Z,20.07
2018-10-09T20:42:52.600Z,25.67
2018-10-09T20:45:21.201Z,20.03
2018-10-09T20:47:49.805Z,19.17
2018-10-09T20:50:18.332Z,23.83
2018-10-09T20:52:46.813Z,27.57
2018-10-09T20:55:15.312Z,22.80
2018-10-09T20:57:43.948Z,35.93
2018-10-09T21:00:12.496Z,29.70
2018-10-09T21:02:41.072Z,31.20
2018-10-09T21:05:09.724Z,26.83
2018-10-09T21:07:38.211Z,28.90
2018-10-09T21:10:06.743Z,25.77
2018-10-09T21:12:35.345Z,27.60
2018-10-09T21:15:03.886Z,22.87
2018-10-09T21:17:32.524Z,24.03
2018-10-09T21:20:01.254Z,23.47
2018-10-09T21:22:29.803Z,31.47
2018-10-09T21:24:58.349Z,26.20
2018-10-09T21:27:26.908Z,23.07
2018-10-09T21:29:55.669Z,20.10
2018-10-09T21:32:24.168Z,25.47
2018-10-09T21:34:52.749Z,30.73
2018-10-09T21:37:21.786Z,28.93
2018-10-09T21:39:50.308Z,25.23
2018-10-09T21:42:18.807Z,23.47
2018-10-09T21:44:47.432Z,22.63
2018-10-09T21:47:15.938Z,24.47
2018-10-09T21:49:44.440Z,22.67
2018-10-09T21:52:13.018Z,20.40
2018-10-09T21:54:41.724Z,20.43
2018-10-09T21:57:10.333Z,22.70
2018-10-09T21:59:38.892Z,21.33
2018-10-09T22:02:07.437Z,22.27
2018-10-09T22:04:35.933Z,19.73
2018-10-09T22:07:04.429Z,22.60
2018-10-09T22:09:32.996Z,25.53
2018-10-09T22:12:01.468Z,24.20
2018-10-09T22:14:30.072Z,26.10
2018-10-09T22:16:58.718Z,27.03
2018-10-09T22:19:27.247Z,29.13
2018-10-09T22:21:55.814Z,25.37
2018-10-09T22:24:24.346Z,26.37
2018-10-09T22:26:52.865Z,35.13
2018-10-09T22:29:21.721Z,28.83
2018-10-09T22:31:50.258Z,35.93
2018-10-09T22:34:18.859Z,34.23
2018-10-09T22:36:47.777Z,39.10
2018-10-09T22:39:16.290Z,33.87
2018-10-09T22:41:44.790Z,44.10
2018-10-09T22:44:13.379Z,31.83
2018-10-09T22:46:41.952Z,28.97
2018-10-09T22:49:10.444Z,25.27
2018-10-09T22:51:39.015Z,26.93
2018-10-09T22:54:07.507Z,25.83
2018-10-09T22:56:36.095Z,26.50
2018-10-09T22:59:04.574Z,32.17
2018-10-09T23:01:33.172Z,29.10
2018-10-09T23:04:02.815Z,28.90
2018-10-09T23:06:31.356Z,24.27
2018-10-09T23:08:59.908Z,26.13
2018-10-09T23:11:28.445Z,28.17
2018-10-09T23:13:56.974Z,25.70
2018-10-09T23:16:26.005Z,29.40
2018-10-09T23:18:54.630Z,27.47
2018-10-09T23:21:23.760Z,28.20
2018-10-09T23:23:52.457Z,23.30
2018-10-09T23:26:20.933Z,27.37
2018-10-09T23:28:50.513Z,28.97
2018-10-09T23:31:19.164Z,24.37
2018-10-09T23:33:47.717Z,25.53
2018-10-09T23:36:16.285Z,30.07
2018-10-09T23:38:44.867Z,23.60
2018-10-09T23:41:14.008Z,25.10
2018-10-09T23:43:42.524Z,23.23
2018-10-09T23:46:11.016Z,26.97
2018-10-09T23:48:39.491Z,25.10
2018-10-09T23:51:07.984Z,26.33
2018-10-09T23:53:36.453Z,22.93
2018-10-09T23:56:05.012Z,22.83
2018-10-09T23:58:33.536Z,25.23
